Terminal Aerodrome Forecast
Issued by NWS Albany, NY

Home | Current Version | Previous Version | Text Only | Print | Product List | Glossary On
Versions: 1 2 3 4 5 6 7 8 9 10 11 12 13 14 15 16 17 18 19 20 21 22
000
FTUS41 KALY 032337
TAFPOU
TAF
KPOU 032337Z 0400/0424 VRB03KT P6SM SCT100 BKN200
     FM040800 00000KT P6SM VCSH SCT060 OVC100
     FM041400 VRB04KT P6SM -SHRA SCT025 OVC035
     FM042100 VRB03KT P6SM VCSH SCT035 BKN070=

USA.gov is the U.S. government's official web portal to all federal, state and local government web resources and services.